sensor_id;sensor_type;location;lat;lon;timestamp;P1;durP1;ratioP1;P2;durP2;ratioP2
72573;SDS011;60603;52.548;13.420;2023-04-10T00:02:17;50.20;;;23.20;;
72573;SDS011;60603;52.548;13.420;2023-04-10T00:04:43;44.50;;;21.10;;
72573;SDS011;60603;52.548;13.420;2023-04-10T00:07:09;44.63;;;23.02;;
72573;SDS011;60603;52.548;13.420;2023-04-10T00:09:35;44.90;;;22.38;;
72573;SDS011;60603;52.548;13.420;2023-04-10T00:12:01;46.35;;;23.27;;
72573;SDS011;60603;52.548;13.420;2023-04-10T00:14:27;48.80;;;24.40;;
72573;SDS011;60603;52.548;13.420;2023-04-10T00:16:52;47.40;;;22.70;;
72573;SDS011;60603;52.548;13.420;2023-04-10T00:19:18;51.80;;;25.20;;
72573;SDS011;60603;52.548;13.420;2023-04-10T00:21:44;45.33;;;22.80;;
72573;SDS011;60603;52.548;13.420;2023-04-10T00:24:10;48.17;;;21.65;;
72573;SDS011;60603;52.548;13.420;2023-04-10T00:26:36;43.00;;;21.08;;
72573;SDS011;60603;52.548;13.420;2023-04-10T00:29:02;44.72;;;21.58;;
72573;SDS011;60603;52.548;13.420;2023-04-10T00:31:28;49.17;;;22.33;;
72573;SDS011;60603;52.548;13.420;2023-04-10T00:33:54;43.42;;;21.08;;
72573;SDS011;60603;52.548;13.420;2023-04-10T00:36:20;45.40;;;21.95;;
72573;SDS011;60603;52.548;13.420;2023-04-10T00:38:46;50.85;;;23.23;;
72573;SDS011;60603;52.548;13.420;2023-04-10T00:41:12;50.33;;;24.38;;
72573;SDS011;60603;52.548;13.420;2023-04-10T00:43:38;51.10;;;22.52;;
72573;SDS011;60603;52.548;13.420;2023-04-10T00:46:03;52.85;;;23.52;;
72573;SDS011;60603;52.548;13.420;2023-04-10T00:48:31;50.97;;;24.38;;
72573;SDS011;60603;52.548;13.420;2023-04-10T00:50:58;49.95;;;23.30;;
72573;SDS011;60603;52.548;13.420;2023-04-10T00:53:24;53.03;;;24.65;;
72573;SDS011;60603;52.548;13.420;2023-04-10T00:55:50;52.70;;;24.27;;
72573;SDS011;60603;52.548;13.420;2023-04-10T00:58:16;46.33;;;22.35;;
72573;SDS011;60603;52.548;13.420;2023-04-10T01:00:43;49.30;;;22.15;;
72573;SDS011;60603;52.548;13.420;2023-04-10T01:03:08;47.53;;;22.00;;
72573;SDS011;60603;52.548;13.420;2023-04-10T01:08:25;44.35;;;19.67;;
72573;SDS011;60603;52.548;13.420;2023-04-10T01:11:51;41.00;;;19.83;;
72573;SDS011;60603;52.548;13.420;2023-04-10T01:17:06;42.70;;;20.10;;
72573;SDS011;60603;52.548;13.420;2023-04-10T01:22:31;40.55;;;18.85;;
72573;SDS011;60603;52.548;13.420;2023-04-10T01:25:01;37.53;;;20.52;;
72573;SDS011;60603;52.548;13.420;2023-04-10T01:27:39;34.05;;;17.95;;
72573;SDS011;60603;52.548;13.420;2023-04-10T01:30:11;37.22;;;18.08;;
72573;SDS011;60603;52.548;13.420;2023-04-10T01:32:39;39.03;;;18.10;;
72573;SDS011;60603;52.548;13.420;2023-04-10T01:35:05;36.78;;;18.77;;
72573;SDS011;60603;52.548;13.420;2023-04-10T01:37:33;37.33;;;17.73;;
72573;SDS011;60603;52.548;13.420;2023-04-10T01:40:03;41.88;;;20.10;;
72573;SDS011;60603;52.548;13.420;2023-04-10T01:42:33;40.05;;;20.55;;
72573;SDS011;60603;52.548;13.420;2023-04-10T01:44:59;40.05;;;18.90;;
72573;SDS011;60603;52.548;13.420;2023-04-10T01:47:26;39.47;;;19.55;;
72573;SDS011;60603;52.548;13.420;2023-04-10T01:49:52;42.65;;;20.33;;
72573;SDS011;60603;52.548;13.420;2023-04-10T01:52:19;39.83;;;19.17;;
72573;SDS011;60603;52.548;13.420;2023-04-10T01:54:46;42.50;;;19.17;;
72573;SDS011;60603;52.548;13.420;2023-04-10T01:57:14;41.92;;;19.67;;
72573;SDS011;60603;52.548;13.420;2023-04-10T01:59:40;36.25;;;16.63;;
72573;SDS011;60603;52.548;13.420;2023-04-10T02:02:07;37.78;;;18.13;;
72573;SDS011;60603;52.548;13.420;2023-04-10T02:04:35;39.42;;;17.67;;
72573;SDS011;60603;52.548;13.420;2023-04-10T02:09:30;43.88;;;18.08;;
72573;SDS011;60603;52.548;13.420;2023-04-10T02:12:05;39.42;;;18.92;;
72573;SDS011;60603;52.548;13.420;2023-04-10T02:14:33;33.97;;;18.38;;
72573;SDS011;60603;52.548;13.420;2023-04-10T02:17:01;38.78;;;18.80;;
72573;SDS011;60603;52.548;13.420;2023-04-10T02:19:27;38.83;;;17.90;;
72573;SDS011;60603;52.548;13.420;2023-04-10T02:21:55;40.63;;;18.25;;
72573;SDS011;60603;52.548;13.420;2023-04-10T02:24:22;42.33;;;17.70;;
72573;SDS011;60603;52.548;13.420;2023-04-10T02:26:48;34.17;;;17.92;;
72573;SDS011;60603;52.548;13.420;2023-04-10T02:29:15;38.65;;;17.55;;
72573;SDS011;60603;52.548;13.420;2023-04-10T02:31:41;38.80;;;16.90;;
72573;SDS011;60603;52.548;13.420;2023-04-10T02:34:07;39.30;;;17.08;;
72573;SDS011;60603;52.548;13.420;2023-04-10T02:36:37;39.47;;;18.52;;
72573;SDS011;60603;52.548;13.420;2023-04-10T02:39:03;38.15;;;17.67;;
72573;SDS011;60603;52.548;13.420;2023-04-10T02:41:29;34.28;;;18.38;;
72573;SDS011;60603;52.548;13.420;2023-04-10T02:43:55;35.60;;;17.20;;
72573;SDS011;60603;52.548;13.420;2023-04-10T02:46:21;41.83;;;19.35;;
72573;SDS011;60603;52.548;13.420;2023-04-10T02:48:47;37.47;;;19.13;;
72573;SDS011;60603;52.548;13.420;2023-04-10T02:51:13;46.05;;;19.90;;
72573;SDS011;60603;52.548;13.420;2023-04-10T02:53:38;39.30;;;18.45;;
72573;SDS011;60603;52.548;13.420;2023-04-10T02:56:04;45.70;;;20.55;;
72573;SDS011;60603;52.548;13.420;2023-04-10T02:58:33;37.95;;;18.95;;
72573;SDS011;60603;52.548;13.420;2023-04-10T03:01:00;42.97;;;18.17;;
72573;SDS011;60603;52.548;13.420;2023-04-10T03:03:26;45.20;;;19.83;;
72573;SDS011;60603;52.548;13.420;2023-04-10T03:05:52;42.17;;;21.27;;
72573;SDS011;60603;52.548;13.420;2023-04-10T03:08:17;46.13;;;20.55;;
72573;SDS011;60603;52.548;13.420;2023-04-10T03:10:44;45.35;;;20.00;;
72573;SDS011;60603;52.548;13.420;2023-04-10T03:13:10;46.88;;;21.50;;
72573;SDS011;60603;52.548;13.420;2023-04-10T03:15:36;41.22;;;19.98;;
72573;SDS011;60603;52.548;13.420;2023-04-10T03:18:05;45.13;;;20.60;;
72573;SDS011;60603;52.548;13.420;2023-04-10T03:20:32;48.15;;;20.92;;
72573;SDS011;60603;52.548;13.420;2023-04-10T03:22:58;43.55;;;19.67;;
72573;SDS011;60603;52.548;13.420;2023-04-10T03:25:24;47.33;;;20.83;;
72573;SDS011;60603;52.548;13.420;2023-04-10T03:27:50;37.42;;;21.05;;
72573;SDS011;60603;52.548;13.420;2023-04-10T03:30:16;49.03;;;21.83;;
72573;SDS011;60603;52.548;13.420;2023-04-10T03:32:42;47.13;;;22.88;;
72573;SDS011;60603;52.548;13.420;2023-04-10T03:35:08;47.35;;;22.83;;
72573;SDS011;60603;52.548;13.420;2023-04-10T03:37:34;40.70;;;20.60;;
72573;SDS011;60603;52.548;13.420;2023-04-10T03:40:02;49.58;;;22.90;;
72573;SDS011;60603;52.548;13.420;2023-04-10T03:42:30;51.53;;;22.85;;
72573;SDS011;60603;52.548;13.420;2023-04-10T03:44:56;48.40;;;22.40;;
72573;SDS011;60603;52.548;13.420;2023-04-10T03:47:21;48.25;;;24.05;;
72573;SDS011;60603;52.548;13.420;2023-04-10T03:49:47;46.65;;;22.45;;
72573;SDS011;60603;52.548;13.420;2023-04-10T03:52:13;44.30;;;22.58;;
72573;SDS011;60603;52.548;13.420;2023-04-10T03:54:39;44.63;;;21.95;;
72573;SDS011;60603;52.548;13.420;2023-04-10T03:57:05;45.13;;;22.08;;
72573;SDS011;60603;52.548;13.420;2023-04-10T03:59:30;42.17;;;20.30;;
72573;SDS011;60603;52.548;13.420;2023-04-10T04:01:56;49.97;;;22.00;;
72573;SDS011;60603;52.548;13.420;2023-04-10T04:04:22;43.50;;;21.42;;
72573;SDS011;60603;52.548;13.420;2023-04-10T04:06:47;41.88;;;20.23;;
72573;SDS011;60603;52.548;13.420;2023-04-10T04:09:13;37.72;;;19.98;;
72573;SDS011;60603;52.548;13.420;2023-04-10T04:11:39;45.55;;;21.55;;
72573;SDS011;60603;52.548;13.420;2023-04-10T04:14:05;45.13;;;21.00;;
72573;SDS011;60603;52.548;13.420;2023-04-10T04:16:31;36.78;;;18.92;;
72573;SDS011;60603;52.548;13.420;2023-04-10T04:18:56;40.63;;;19.35;;
72573;SDS011;60603;52.548;13.420;2023-04-10T04:21:22;36.53;;;19.02;;
72573;SDS011;60603;52.548;13.420;2023-04-10T04:23:48;41.20;;;20.33;;
72573;SDS011;60603;52.548;13.420;2023-04-10T04:26:13;41.90;;;19.98;;
72573;SDS011;60603;52.548;13.420;2023-04-10T04:28:39;37.28;;;19.10;;
72573;SDS011;60603;52.548;13.420;2023-04-10T04:31:05;39.83;;;19.27;;
72573;SDS011;60603;52.548;13.420;2023-04-10T04:33:31;39.78;;;19.70;;
72573;SDS011;60603;52.548;13.420;2023-04-10T04:35:57;35.05;;;19.35;;
72573;SDS011;60603;52.548;13.420;2023-04-10T04:38:22;36.28;;;18.77;;
72573;SDS011;60603;52.548;13.420;2023-04-10T04:40:48;37.78;;;18.40;;
72573;SDS011;60603;52.548;13.420;2023-04-10T04:43:14;38.38;;;18.75;;
72573;SDS011;60603;52.548;13.420;2023-04-10T04:45:39;37.05;;;17.77;;
72573;SDS011;60603;52.548;13.420;2023-04-10T04:48:05;36.00;;;18.00;;
72573;SDS011;60603;52.548;13.420;2023-04-10T04:50:31;31.67;;;17.15;;
72573;SDS011;60603;52.548;13.420;2023-04-10T04:52:57;37.08;;;18.45;;
72573;SDS011;60603;52.548;13.420;2023-04-10T04:55:24;39.97;;;17.67;;
72573;SDS011;60603;52.548;13.420;2023-04-10T04:57:50;38.40;;;17.10;;
72573;SDS011;60603;52.548;13.420;2023-04-10T05:00:16;32.97;;;16.77;;
72573;SDS011;60603;52.548;13.420;2023-04-10T05:02:42;38.25;;;18.58;;
72573;SDS011;60603;52.548;13.420;2023-04-10T05:05:07;38.92;;;17.70;;
72573;SDS011;60603;52.548;13.420;2023-04-10T05:07:33;34.63;;;16.65;;
72573;SDS011;60603;52.548;13.420;2023-04-10T05:09:59;37.90;;;16.70;;
72573;SDS011;60603;52.548;13.420;2023-04-10T05:12:25;33.40;;;15.98;;
72573;SDS011;60603;52.548;13.420;2023-04-10T05:14:51;34.17;;;16.23;;
72573;SDS011;60603;52.548;13.420;2023-04-10T05:17:17;27.88;;;15.40;;
72573;SDS011;60603;52.548;13.420;2023-04-10T05:19:43;29.42;;;14.88;;
72573;SDS011;60603;52.548;13.420;2023-04-10T05:22:08;32.83;;;15.90;;
72573;SDS011;60603;52.548;13.420;2023-04-10T05:24:34;32.50;;;16.98;;
72573;SDS011;60603;52.548;13.420;2023-04-10T05:27:00;27.75;;;13.40;;
72573;SDS011;60603;52.548;13.420;2023-04-10T05:29:26;27.25;;;13.80;;
72573;SDS011;60603;52.548;13.420;2023-04-10T05:31:52;29.45;;;13.25;;
72573;SDS011;60603;52.548;13.420;2023-04-10T05:34:17;22.90;;;12.48;;
72573;SDS011;60603;52.548;13.420;2023-04-10T05:36:43;25.67;;;12.68;;
72573;SDS011;60603;52.548;13.420;2023-04-10T05:39:09;22.23;;;11.93;;
72573;SDS011;60603;52.548;13.420;2023-04-10T05:41:35;19.35;;;10.93;;
72573;SDS011;60603;52.548;13.420;2023-04-10T05:44:00;21.00;;;10.73;;
72573;SDS011;60603;52.548;13.420;2023-04-10T05:46:26;20.65;;;10.32;;
72573;SDS011;60603;52.548;13.420;2023-04-10T05:48:52;19.48;;;10.20;;
72573;SDS011;60603;52.548;13.420;2023-04-10T05:51:18;18.23;;;9.77;;
72573;SDS011;60603;52.548;13.420;2023-04-10T05:53:43;21.95;;;10.73;;
72573;SDS011;60603;52.548;13.420;2023-04-10T05:56:09;17.45;;;9.73;;
72573;SDS011;60603;52.548;13.420;2023-04-10T05:58:35;17.30;;;9.18;;
72573;SDS011;60603;52.548;13.420;2023-04-10T06:01:01;21.45;;;10.70;;
72573;SDS011;60603;52.548;13.420;2023-04-10T06:03:26;20.13;;;10.38;;
72573;SDS011;60603;52.548;13.420;2023-04-10T06:05:54;18.23;;;10.13;;
72573;SDS011;60603;52.548;13.420;2023-04-10T06:08:20;18.50;;;9.88;;
72573;SDS011;60603;52.548;13.420;2023-04-10T06:10:47;16.42;;;9.27;;
72573;SDS011;60603;52.548;13.420;2023-04-10T06:13:13;19.67;;;8.90;;
72573;SDS011;60603;52.548;13.420;2023-04-10T06:15:41;20.42;;;10.63;;
72573;SDS011;60603;52.548;13.420;2023-04-10T06:18:07;18.88;;;10.15;;
72573;SDS011;60603;52.548;13.420;2023-04-10T06:20:33;17.98;;;9.20;;
72573;SDS011;60603;52.548;13.420;2023-04-10T06:22:59;18.05;;;10.48;;
72573;SDS011;60603;52.548;13.420;2023-04-10T06:25:25;16.00;;;9.95;;
72573;SDS011;60603;52.548;13.420;2023-04-10T06:27:51;19.02;;;9.20;;
72573;SDS011;60603;52.548;13.420;2023-04-10T06:30:16;18.67;;;9.88;;
72573;SDS011;60603;52.548;13.420;2023-04-10T06:32:42;16.90;;;9.43;;
72573;SDS011;60603;52.548;13.420;2023-04-10T06:35:08;16.42;;;9.63;;
72573;SDS011;60603;52.548;13.420;2023-04-10T06:37:34;21.70;;;10.63;;
72573;SDS011;60603;52.548;13.420;2023-04-10T06:40:03;20.35;;;10.27;;
72573;SDS011;60603;52.548;13.420;2023-04-10T06:42:30;18.63;;;10.77;;
72573;SDS011;60603;52.548;13.420;2023-04-10T06:44:56;22.33;;;11.32;;
72573;SDS011;60603;52.548;13.420;2023-04-10T06:47:22;22.92;;;10.85;;
72573;SDS011;60603;52.548;13.420;2023-04-10T06:49:47;20.45;;;11.10;;
72573;SDS011;60603;52.548;13.420;2023-04-10T06:52:13;20.02;;;10.30;;
72573;SDS011;60603;52.548;13.420;2023-04-10T06:54:39;19.05;;;10.57;;
72573;SDS011;60603;52.548;13.420;2023-04-10T06:57:05;22.33;;;11.15;;
72573;SDS011;60603;52.548;13.420;2023-04-10T06:59:31;21.08;;;10.93;;
72573;SDS011;60603;52.548;13.420;2023-04-10T07:01:58;21.58;;;11.32;;
72573;SDS011;60603;52.548;13.420;2023-04-10T07:04:24;21.80;;;10.90;;
72573;SDS011;60603;52.548;13.420;2023-04-10T07:06:50;24.25;;;11.80;;
72573;SDS011;60603;52.548;13.420;2023-04-10T07:09:16;23.77;;;12.68;;
72573;SDS011;60603;52.548;13.420;2023-04-10T07:11:41;25.33;;;12.55;;
72573;SDS011;60603;52.548;13.420;2023-04-10T07:14:07;24.67;;;13.40;;
72573;SDS011;60603;52.548;13.420;2023-04-10T07:16:33;27.02;;;14.18;;
72573;SDS011;60603;52.548;13.420;2023-04-10T07:18:59;28.48;;;14.82;;
72573;SDS011;60603;52.548;13.420;2023-04-10T07:21:24;23.98;;;13.98;;
72573;SDS011;60603;52.548;13.420;2023-04-10T07:23:51;28.88;;;13.80;;
72573;SDS011;60603;52.548;13.420;2023-04-10T07:26:17;26.27;;;14.98;;
72573;SDS011;60603;52.548;13.420;2023-04-10T07:28:43;28.05;;;14.85;;
72573;SDS011;60603;52.548;13.420;2023-04-10T07:31:09;27.38;;;15.23;;
72573;SDS011;60603;52.548;13.420;2023-04-10T07:33:37;27.08;;;15.25;;
72573;SDS011;60603;52.548;13.420;2023-04-10T07:36:03;26.52;;;15.43;;
72573;SDS011;60603;52.548;13.420;2023-04-10T07:38:30;23.65;;;14.77;;
72573;SDS011;60603;52.548;13.420;2023-04-10T07:40:57;24.10;;;15.05;;
72573;SDS011;60603;52.548;13.420;2023-04-10T07:43:23;28.80;;;15.05;;
72573;SDS011;60603;52.548;13.420;2023-04-10T07:45:49;25.58;;;14.65;;
72573;SDS011;60603;52.548;13.420;2023-04-10T07:48:15;29.60;;;15.25;;
72573;SDS011;60603;52.548;13.420;2023-04-10T07:50:40;28.00;;;14.75;;
72573;SDS011;60603;52.548;13.420;2023-04-10T07:53:06;28.27;;;14.52;;
72573;SDS011;60603;52.548;13.420;2023-04-10T07:58:04;25.80;;;15.52;;
72573;SDS011;60603;52.548;13.420;2023-04-10T08:00:31;30.63;;;15.30;;
72573;SDS011;60603;52.548;13.420;2023-04-10T08:02:57;29.38;;;15.05;;
72573;SDS011;60603;52.548;13.420;2023-04-10T08:05:22;25.90;;;15.63;;
72573;SDS011;60603;52.548;13.420;2023-04-10T08:07:48;29.63;;;16.05;;
72573;SDS011;60603;52.548;13.420;2023-04-10T08:10:14;28.75;;;15.32;;
72573;SDS011;60603;52.548;13.420;2023-04-10T08:12:40;30.45;;;16.00;;
72573;SDS011;60603;52.548;13.420;2023-04-10T08:15:05;34.17;;;17.00;;
72573;SDS011;60603;52.548;13.420;2023-04-10T08:17:32;28.70;;;14.75;;
72573;SDS011;60603;52.548;13.420;2023-04-10T08:19:57;34.17;;;17.23;;
72573;SDS011;60603;52.548;13.420;2023-04-10T08:22:23;29.20;;;15.85;;
72573;SDS011;60603;52.548;13.420;2023-04-10T08:24:48;28.45;;;14.73;;
72573;SDS011;60603;52.548;13.420;2023-04-10T08:27:14;30.35;;;15.77;;
72573;SDS011;60603;52.548;13.420;2023-04-10T08:29:40;29.25;;;16.23;;
72573;SDS011;60603;52.548;13.420;2023-04-10T08:32:07;28.98;;;16.58;;
72573;SDS011;60603;52.548;13.420;2023-04-10T08:34:32;29.60;;;15.60;;
72573;SDS011;60603;52.548;13.420;2023-04-10T08:36:58;26.25;;;14.52;;
72573;SDS011;60603;52.548;13.420;2023-04-10T08:39:24;25.45;;;15.00;;
72573;SDS011;60603;52.548;13.420;2023-04-10T08:41:50;32.60;;;16.23;;
72573;SDS011;60603;52.548;13.420;2023-04-10T08:44:16;35.35;;;17.27;;
72573;SDS011;60603;52.548;13.420;2023-04-10T08:46:43;31.98;;;16.77;;
72573;SDS011;60603;52.548;13.420;2023-04-10T08:49:09;32.58;;;16.30;;
72573;SDS011;60603;52.548;13.420;2023-04-10T08:51:41;30.02;;;16.60;;
72573;SDS011;60603;52.548;13.420;2023-04-10T08:54:13;32.03;;;17.45;;
72573;SDS011;60603;52.548;13.420;2023-04-10T08:56:44;33.35;;;16.85;;
72573;SDS011;60603;52.548;13.420;2023-04-10T08:59:12;30.75;;;15.85;;
72573;SDS011;60603;52.548;13.420;2023-04-10T09:01:38;29.98;;;16.27;;
72573;SDS011;60603;52.548;13.420;2023-04-10T09:04:04;30.83;;;16.27;;
72573;SDS011;60603;52.548;13.420;2023-04-10T09:06:31;30.75;;;16.17;;
72573;SDS011;60603;52.548;13.420;2023-04-10T09:08:56;28.95;;;14.82;;
72573;SDS011;60603;52.548;13.420;2023-04-10T09:11:43;29.77;;;15.38;;
72573;SDS011;60603;52.548;13.420;2023-04-10T09:14:29;21.48;;;11.52;;
72573;SDS011;60603;52.548;13.420;2023-04-10T09:17:16;24.77;;;13.25;;
72573;SDS011;60603;52.548;13.420;2023-04-10T09:19:42;23.17;;;12.82;;
72573;SDS011;60603;52.548;13.420;2023-04-10T09:22:09;28.00;;;14.30;;
72573;SDS011;60603;52.548;13.420;2023-04-10T09:24:36;25.00;;;13.48;;
72573;SDS011;60603;52.548;13.420;2023-04-10T09:27:03;26.17;;;13.23;;
72573;SDS011;60603;52.548;13.420;2023-04-10T09:29:46;25.05;;;12.30;;
72573;SDS011;60603;52.548;13.420;2023-04-10T09:35:07;23.08;;;12.50;;
72573;SDS011;60603;52.548;13.420;2023-04-10T09:37:34;25.98;;;13.05;;
72573;SDS011;60603;52.548;13.420;2023-04-10T09:40:01;25.80;;;12.75;;
72573;SDS011;60603;52.548;13.420;2023-04-10T09:42:34;26.90;;;13.50;;
72573;SDS011;60603;52.548;13.420;2023-04-10T09:45:03;25.05;;;12.35;;
72573;SDS011;60603;52.548;13.420;2023-04-10T09:47:30;20.05;;;10.95;;
72573;SDS011;60603;52.548;13.420;2023-04-10T09:49:56;19.33;;;10.40;;
72573;SDS011;60603;52.548;13.420;2023-04-10T09:55:03;20.50;;;10.52;;
72573;SDS011;60603;52.548;13.420;2023-04-10T09:57:31;23.80;;;11.02;;
72573;SDS011;60603;52.548;13.420;2023-04-10T10:00:00;18.23;;;9.57;;
72573;SDS011;60603;52.548;13.420;2023-04-10T10:02:29;17.63;;;9.43;;
72573;SDS011;60603;52.548;13.420;2023-04-10T10:04:55;18.20;;;9.07;;
72573;SDS011;60603;52.548;13.420;2023-04-10T10:07:22;22.48;;;9.35;;
72573;SDS011;60603;52.548;13.420;2023-04-10T10:09:49;17.92;;;8.75;;
72573;SDS011;60603;52.548;13.420;2023-04-10T10:12:33;17.23;;;9.48;;
72573;SDS011;60603;52.548;13.420;2023-04-10T10:17:49;16.52;;;9.38;;
72573;SDS011;60603;52.548;13.420;2023-04-10T10:20:19;19.88;;;9.73;;
72573;SDS011;60603;52.548;13.420;2023-04-10T10:25:15;20.38;;;9.75;;
72573;SDS011;60603;52.548;13.420;2023-04-10T10:27:43;18.13;;;8.90;;
72573;SDS011;60603;52.548;13.420;2023-04-10T10:30:11;16.38;;;8.68;;
72573;SDS011;60603;52.548;13.420;2023-04-10T10:32:37;21.58;;;8.95;;
72573;SDS011;60603;52.548;13.420;2023-04-10T10:35:04;17.13;;;8.20;;
72573;SDS011;60603;52.548;13.420;2023-04-10T10:37:33;17.40;;;8.13;;
72573;SDS011;60603;52.548;13.420;2023-04-10T10:42:41;16.80;;;8.68;;
72573;SDS011;60603;52.548;13.420;2023-04-10T10:45:13;16.85;;;8.38;;
72573;SDS011;60603;52.548;13.420;2023-04-10T10:50:08;18.63;;;7.90;;
72573;SDS011;60603;52.548;13.420;2023-04-10T10:52:41;15.88;;;7.18;;
72573;SDS011;60603;52.548;13.420;2023-04-10T10:57:48;17.48;;;7.97;;
72573;SDS011;60603;52.548;13.420;2023-04-10T11:00:16;16.02;;;8.07;;
72573;SDS011;60603;52.548;13.420;2023-04-10T11:02:42;14.93;;;7.68;;
72573;SDS011;60603;52.548;13.420;2023-04-10T11:05:08;13.52;;;7.03;;
72573;SDS011;60603;52.548;13.420;2023-04-10T11:13:32;12.55;;;6.57;;
72573;SDS011;60603;52.548;13.420;2023-04-10T11:15:59;13.00;;;6.38;;
72573;SDS011;60603;52.548;13.420;2023-04-10T11:21:20;10.70;;;5.68;;
72573;SDS011;60603;52.548;13.420;2023-04-10T11:31:36;11.77;;;5.93;;
72573;SDS011;60603;52.548;13.420;2023-04-10T11:34:03;11.80;;;6.03;;
72573;SDS011;60603;52.548;13.420;2023-04-10T11:36:30;12.73;;;6.00;;
72573;SDS011;60603;52.548;13.420;2023-04-10T11:39:01;11.85;;;5.60;;
72573;SDS011;60603;52.548;13.420;2023-04-10T11:41:36;12.35;;;6.38;;
72573;SDS011;60603;52.548;13.420;2023-04-10T11:44:07;12.02;;;5.97;;
72573;SDS011;60603;52.548;13.420;2023-04-10T11:46:37;12.27;;;6.57;;
72573;SDS011;60603;52.548;13.420;2023-04-10T11:49:05;11.02;;;6.45;;
72573;SDS011;60603;52.548;13.420;2023-04-10T11:51:34;11.88;;;6.35;;
72573;SDS011;60603;52.548;13.420;2023-04-10T11:56:33;10.27;;;5.32;;
72573;SDS011;60603;52.548;13.420;2023-04-10T11:59:00;10.93;;;5.40;;
72573;SDS011;60603;52.548;13.420;2023-04-10T12:01:26;9.80;;;5.28;;
72573;SDS011;60603;52.548;13.420;2023-04-10T12:03:52;10.80;;;5.93;;
72573;SDS011;60603;52.548;13.420;2023-04-10T12:06:18;10.95;;;5.53;;
72573;SDS011;60603;52.548;13.420;2023-04-10T12:08:45;12.70;;;5.35;;
72573;SDS011;60603;52.548;13.420;2023-04-10T12:11:16;10.85;;;4.60;;
72573;SDS011;60603;52.548;13.420;2023-04-10T12:13:42;14.18;;;6.25;;
72573;SDS011;60603;52.548;13.420;2023-04-10T12:16:08;10.73;;;4.70;;
72573;SDS011;60603;52.548;13.420;2023-04-10T12:18:35;10.13;;;5.80;;
72573;SDS011;60603;52.548;13.420;2023-04-10T12:21:01;10.45;;;4.70;;
72573;SDS011;60603;52.548;13.420;2023-04-10T12:23:28;10.52;;;4.85;;
72573;SDS011;60603;52.548;13.420;2023-04-10T12:28:42;9.88;;;5.18;;
72573;SDS011;60603;52.548;13.420;2023-04-10T12:31:15;12.00;;;5.00;;
72573;SDS011;60603;52.548;13.420;2023-04-10T12:33:44;9.43;;;4.75;;
72573;SDS011;60603;52.548;13.420;2023-04-10T12:36:23;9.80;;;4.88;;
72573;SDS011;60603;52.548;13.420;2023-04-10T12:38:54;14.75;;;5.57;;
72573;SDS011;60603;52.548;13.420;2023-04-10T12:41:41;10.38;;;4.75;;
72573;SDS011;60603;52.548;13.420;2023-04-10T12:44:08;9.57;;;4.60;;
72573;SDS011;60603;52.548;13.420;2023-04-10T12:46:38;9.52;;;4.72;;
72573;SDS011;60603;52.548;13.420;2023-04-10T12:49:08;9.43;;;4.93;;
72573;SDS011;60603;52.548;13.420;2023-04-10T12:51:46;13.63;;;5.85;;
72573;SDS011;60603;52.548;13.420;2023-04-10T12:54:26;9.15;;;4.80;;
72573;SDS011;60603;52.548;13.420;2023-04-10T12:56:56;8.40;;;4.93;;
72573;SDS011;60603;52.548;13.420;2023-04-10T12:59:22;9.75;;;4.78;;
72573;SDS011;60603;52.548;13.420;2023-04-10T13:01:48;8.30;;;4.55;;
72573;SDS011;60603;52.548;13.420;2023-04-10T13:04:14;9.15;;;4.97;;
72573;SDS011;60603;52.548;13.420;2023-04-10T13:06:41;10.10;;;5.18;;
72573;SDS011;60603;52.548;13.420;2023-04-10T13:09:08;9.70;;;5.20;;
72573;SDS011;60603;52.548;13.420;2023-04-10T13:11:34;8.60;;;5.10;;
72573;SDS011;60603;52.548;13.420;2023-04-10T13:14:00;8.48;;;5.03;;
72573;SDS011;60603;52.548;13.420;2023-04-10T13:16:25;10.88;;;4.60;;
72573;SDS011;60603;52.548;13.420;2023-04-10T13:18:51;8.80;;;4.93;;
72573;SDS011;60603;52.548;13.420;2023-04-10T13:21:17;12.52;;;5.10;;
72573;SDS011;60603;52.548;13.420;2023-04-10T13:23:47;9.07;;;5.10;;
72573;SDS011;60603;52.548;13.420;2023-04-10T13:26:13;10.05;;;5.43;;
72573;SDS011;60603;52.548;13.420;2023-04-10T13:28:39;10.85;;;4.68;;
72573;SDS011;60603;52.548;13.420;2023-04-10T13:31:05;11.43;;;5.15;;
72573;SDS011;60603;52.548;13.420;2023-04-10T13:33:31;13.00;;;5.10;;
72573;SDS011;60603;52.548;13.420;2023-04-10T13:35:56;8.85;;;4.93;;
72573;SDS011;60603;52.548;13.420;2023-04-10T13:38:22;10.65;;;5.28;;
72573;SDS011;60603;52.548;13.420;2023-04-10T13:40:47;10.82;;;5.45;;
72573;SDS011;60603;52.548;13.420;2023-04-10T13:43:13;11.82;;;5.75;;
72573;SDS011;60603;52.548;13.420;2023-04-10T13:45:40;8.57;;;5.18;;
72573;SDS011;60603;52.548;13.420;2023-04-10T13:48:06;9.25;;;5.10;;
72573;SDS011;60603;52.548;13.420;2023-04-10T13:50:34;10.38;;;4.93;;
72573;SDS011;60603;52.548;13.420;2023-04-10T13:53:00;11.82;;;5.40;;
72573;SDS011;60603;52.548;13.420;2023-04-10T13:55:26;13.07;;;5.50;;
72573;SDS011;60603;52.548;13.420;2023-04-10T13:57:52;11.77;;;5.47;;
72573;SDS011;60603;52.548;13.420;2023-04-10T14:00:17;11.60;;;6.05;;
72573;SDS011;60603;52.548;13.420;2023-04-10T14:02:44;11.85;;;5.68;;
72573;SDS011;60603;52.548;13.420;2023-04-10T14:05:09;10.85;;;5.45;;
72573;SDS011;60603;52.548;13.420;2023-04-10T14:07:35;11.25;;;4.95;;
72573;SDS011;60603;52.548;13.420;2023-04-10T14:10:01;11.45;;;5.13;;
72573;SDS011;60603;52.548;13.420;2023-04-10T14:12:27;8.30;;;5.05;;
72573;SDS011;60603;52.548;13.420;2023-04-10T14:14:53;8.70;;;4.88;;
72573;SDS011;60603;52.548;13.420;2023-04-10T14:17:21;9.77;;;4.57;;
72573;SDS011;60603;52.548;13.420;2023-04-10T14:19:46;10.88;;;4.93;;
72573;SDS011;60603;52.548;13.420;2023-04-10T14:22:16;7.90;;;4.90;;
72573;SDS011;60603;52.548;13.420;2023-04-10T14:24:42;8.82;;;5.05;;
72573;SDS011;60603;52.548;13.420;2023-04-10T14:27:08;8.48;;;4.55;;
72573;SDS011;60603;52.548;13.420;2023-04-10T14:29:33;8.38;;;4.68;;
72573;SDS011;60603;52.548;13.420;2023-04-10T14:31:59;9.18;;;4.75;;
72573;SDS011;60603;52.548;13.420;2023-04-10T14:34:25;8.93;;;4.40;;
72573;SDS011;60603;52.548;13.420;2023-04-10T14:36:51;8.90;;;4.93;;
72573;SDS011;60603;52.548;13.420;2023-04-10T14:39:21;9.27;;;4.50;;
72573;SDS011;60603;52.548;13.420;2023-04-10T14:41:50;11.48;;;5.15;;
72573;SDS011;60603;52.548;13.420;2023-04-10T14:44:16;10.10;;;5.53;;
72573;SDS011;60603;52.548;13.420;2023-04-10T14:46:42;11.52;;;5.60;;
72573;SDS011;60603;52.548;13.420;2023-04-10T14:49:08;11.30;;;6.20;;
72573;SDS011;60603;52.548;13.420;2023-04-10T14:51:34;13.85;;;6.10;;
72573;SDS011;60603;52.548;13.420;2023-04-10T14:54:00;13.10;;;5.88;;
72573;SDS011;60603;52.548;13.420;2023-04-10T14:56:28;13.25;;;5.72;;
72573;SDS011;60603;52.548;13.420;2023-04-10T14:58:54;12.63;;;6.40;;
72573;SDS011;60603;52.548;13.420;2023-04-10T15:01:20;12.65;;;6.32;;
72573;SDS011;60603;52.548;13.420;2023-04-10T15:03:46;10.18;;;4.88;;
72573;SDS011;60603;52.548;13.420;2023-04-10T15:06:13;11.80;;;5.70;;
72573;SDS011;60603;52.548;13.420;2023-04-10T15:08:38;9.85;;;5.80;;